sensor_id;sensor_type;location;lat;lon;timestamp;P1;durP1;ratioP1;P2;durP2;ratioP2
3297;SDS011;1661;53.572;10.174;2023-05-10T00:02:15;6.20;;;5.60;;
3297;SDS011;1661;53.572;10.174;2023-05-10T00:04:42;5.50;;;4.97;;
3297;SDS011;1661;53.572;10.174;2023-05-10T00:07:08;5.43;;;4.93;;
3297;SDS011;1661;53.572;10.174;2023-05-10T00:09:36;9.20;;;5.10;;
3297;SDS011;1661;53.572;10.174;2023-05-10T00:12:04;7.47;;;5.10;;
3297;SDS011;1661;53.572;10.174;2023-05-10T00:14:31;7.43;;;5.53;;
3297;SDS011;1661;53.572;10.174;2023-05-10T00:16:58;5.73;;;5.23;;
3297;SDS011;1661;53.572;10.174;2023-05-10T00:19:28;9.50;;;6.10;;
3297;SDS011;1661;53.572;10.174;2023-05-10T00:21:54;6.37;;;5.47;;
3297;SDS011;1661;53.572;10.174;2023-05-10T00:24:24;6.37;;;5.77;;
3297;SDS011;1661;53.572;10.174;2023-05-10T00:26:51;6.80;;;5.90;;
3297;SDS011;1661;53.572;10.174;2023-05-10T00:29:19;5.23;;;4.70;;
3297;SDS011;1661;53.572;10.174;2023-05-10T00:31:46;10.73;;;5.60;;
3297;SDS011;1661;53.572;10.174;2023-05-10T00:34:15;7.30;;;6.47;;
3297;SDS011;1661;53.572;10.174;2023-05-10T00:36:42;5.37;;;4.87;;
3297;SDS011;1661;53.572;10.174;2023-05-10T00:39:09;9.03;;;5.77;;
3297;SDS011;1661;53.572;10.174;2023-05-10T00:41:37;6.33;;;5.73;;
3297;SDS011;1661;53.572;10.174;2023-05-10T00:44:04;5.93;;;4.97;;
3297;SDS011;1661;53.572;10.174;2023-05-10T00:46:32;5.73;;;5.10;;
3297;SDS011;1661;53.572;10.174;2023-05-10T00:48:59;7.47;;;5.63;;
3297;SDS011;1661;53.572;10.174;2023-05-10T00:51:26;8.20;;;5.50;;
3297;SDS011;1661;53.572;10.174;2023-05-10T00:53:53;7.80;;;5.80;;
3297;SDS011;1661;53.572;10.174;2023-05-10T00:56:21;7.33;;;6.63;;
3297;SDS011;1661;53.572;10.174;2023-05-10T00:58:49;8.03;;;5.00;;
3297;SDS011;1661;53.572;10.174;2023-05-10T01:01:16;12.63;;;6.03;;
3297;SDS011;1661;53.572;10.174;2023-05-10T01:03:44;6.80;;;6.20;;
3297;SDS011;1661;53.572;10.174;2023-05-10T01:06:12;10.83;;;5.27;;
3297;SDS011;1661;53.572;10.174;2023-05-10T01:08:42;5.60;;;5.20;;
3297;SDS011;1661;53.572;10.174;2023-05-10T01:11:09;6.37;;;5.77;;
3297;SDS011;1661;53.572;10.174;2023-05-10T01:13:36;8.33;;;5.93;;
3297;SDS011;1661;53.572;10.174;2023-05-10T01:16:05;8.27;;;6.20;;
3297;SDS011;1661;53.572;10.174;2023-05-10T01:18:33;9.23;;;5.77;;
3297;SDS011;1661;53.572;10.174;2023-05-10T01:24:09;10.20;;;6.30;;
3297;SDS011;1661;53.572;10.174;2023-05-10T01:27:01;5.40;;;4.90;;
3297;SDS011;1661;53.572;10.174;2023-05-10T01:29:51;7.50;;;5.13;;
3297;SDS011;1661;53.572;10.174;2023-05-10T01:32:42;9.20;;;4.93;;
3297;SDS011;1661;53.572;10.174;2023-05-10T01:35:16;19.40;;;5.43;;
3297;SDS011;1661;53.572;10.174;2023-05-10T01:37:50;6.87;;;5.90;;
3297;SDS011;1661;53.572;10.174;2023-05-10T01:40:26;6.50;;;5.47;;
3297;SDS011;1661;53.572;10.174;2023-05-10T01:43:00;7.20;;;5.70;;
3297;SDS011;1661;53.572;10.174;2023-05-10T01:45:30;7.70;;;5.60;;
3297;SDS011;1661;53.572;10.174;2023-05-10T01:48:03;6.17;;;5.60;;
3297;SDS011;1661;53.572;10.174;2023-05-10T01:50:32;12.93;;;6.70;;
3297;SDS011;1661;53.572;10.174;2023-05-10T01:53:01;11.73;;;6.57;;
3297;SDS011;1661;53.572;10.174;2023-05-10T01:55:33;5.87;;;5.20;;
3297;SDS011;1661;53.572;10.174;2023-05-10T01:58:03;10.33;;;5.83;;
3297;SDS011;1661;53.572;10.174;2023-05-10T02:00:33;12.27;;;6.13;;
3297;SDS011;1661;53.572;10.174;2023-05-10T02:03:04;5.80;;;5.30;;
3297;SDS011;1661;53.572;10.174;2023-05-10T02:05:33;6.70;;;5.90;;
3297;SDS011;1661;53.572;10.174;2023-05-10T02:08:01;5.47;;;5.00;;
3297;SDS011;1661;53.572;10.174;2023-05-10T02:10:32;5.77;;;5.27;;
3297;SDS011;1661;53.572;10.174;2023-05-10T02:13:00;5.80;;;5.30;;
3297;SDS011;1661;53.572;10.174;2023-05-10T02:15:29;7.73;;;5.63;;
3297;SDS011;1661;53.572;10.174;2023-05-10T02:17:57;7.90;;;5.70;;
3297;SDS011;1661;53.572;10.174;2023-05-10T02:20:27;16.30;;;5.83;;
3297;SDS011;1661;53.572;10.174;2023-05-10T02:22:57;10.10;;;5.90;;
3297;SDS011;1661;53.572;10.174;2023-05-10T02:25:28;7.93;;;5.70;;
3297;SDS011;1661;53.572;10.174;2023-05-10T02:27:56;8.40;;;5.60;;
3297;SDS011;1661;53.572;10.174;2023-05-10T02:30:26;9.27;;;5.80;;
3297;SDS011;1661;53.572;10.174;2023-05-10T02:32:54;7.63;;;6.03;;
3297;SDS011;1661;53.572;10.174;2023-05-10T02:35:26;7.50;;;6.53;;
3297;SDS011;1661;53.572;10.174;2023-05-10T02:37:54;7.63;;;5.10;;
3297;SDS011;1661;53.572;10.174;2023-05-10T02:40:23;10.10;;;6.03;;
3297;SDS011;1661;53.572;10.174;2023-05-10T02:42:52;7.33;;;6.17;;
3297;SDS011;1661;53.572;10.174;2023-05-10T02:45:23;7.43;;;5.60;;
3297;SDS011;1661;53.572;10.174;2023-05-10T02:47:54;8.30;;;5.43;;
3297;SDS011;1661;53.572;10.174;2023-05-10T02:50:21;6.93;;;5.43;;
3297;SDS011;1661;53.572;10.174;2023-05-10T02:53:00;11.03;;;6.30;;
3297;SDS011;1661;53.572;10.174;2023-05-10T02:55:31;9.57;;;6.93;;
3297;SDS011;1661;53.572;10.174;2023-05-10T02:58:06;8.83;;;5.40;;
3297;SDS011;1661;53.572;10.174;2023-05-10T03:00:33;7.97;;;5.80;;
3297;SDS011;1661;53.572;10.174;2023-05-10T03:03:01;6.20;;;5.60;;
3297;SDS011;1661;53.572;10.174;2023-05-10T03:05:28;13.40;;;6.30;;
3297;SDS011;1661;53.572;10.174;2023-05-10T03:07:54;6.23;;;5.57;;
3297;SDS011;1661;53.572;10.174;2023-05-10T03:10:23;7.50;;;5.87;;
3297;SDS011;1661;53.572;10.174;2023-05-10T03:12:56;5.80;;;5.20;;
3297;SDS011;1661;53.572;10.174;2023-05-10T03:15:33;8.23;;;6.20;;
3297;SDS011;1661;53.572;10.174;2023-05-10T03:18:10;6.57;;;5.60;;
3297;SDS011;1661;53.572;10.174;2023-05-10T03:20:46;8.57;;;6.10;;
3297;SDS011;1661;53.572;10.174;2023-05-10T03:23:17;5.77;;;5.07;;
3297;SDS011;1661;53.572;10.174;2023-05-10T03:25:53;7.60;;;5.83;;
3297;SDS011;1661;53.572;10.174;2023-05-10T03:28:20;7.07;;;5.90;;
3297;SDS011;1661;53.572;10.174;2023-05-10T03:30:48;5.40;;;4.60;;
3297;SDS011;1661;53.572;10.174;2023-05-10T03:33:17;8.40;;;5.77;;
3297;SDS011;1661;53.572;10.174;2023-05-10T03:35:44;11.80;;;5.77;;
3297;SDS011;1661;53.572;10.174;2023-05-10T03:38:11;9.77;;;6.50;;
3297;SDS011;1661;53.572;10.174;2023-05-10T03:40:38;12.97;;;6.77;;
3297;SDS011;1661;53.572;10.174;2023-05-10T03:43:07;6.80;;;6.07;;
3297;SDS011;1661;53.572;10.174;2023-05-10T03:45:33;8.53;;;5.23;;
3297;SDS011;1661;53.572;10.174;2023-05-10T03:48:00;7.13;;;6.43;;
3297;SDS011;1661;53.572;10.174;2023-05-10T03:50:30;5.60;;;5.10;;
3297;SDS011;1661;53.572;10.174;2023-05-10T03:52:57;7.47;;;5.83;;
3297;SDS011;1661;53.572;10.174;2023-05-10T03:55:23;7.27;;;6.57;;
3297;SDS011;1661;53.572;10.174;2023-05-10T03:57:50;8.10;;;5.37;;
3297;SDS011;1661;53.572;10.174;2023-05-10T04:00:20;7.70;;;6.13;;
3297;SDS011;1661;53.572;10.174;2023-05-10T04:02:47;13.23;;;7.07;;
3297;SDS011;1661;53.572;10.174;2023-05-10T04:05:13;11.73;;;5.83;;
3297;SDS011;1661;53.572;10.174;2023-05-10T04:07:42;9.70;;;6.33;;
3297;SDS011;1661;53.572;10.174;2023-05-10T04:10:10;8.10;;;6.10;;
3297;SDS011;1661;53.572;10.174;2023-05-10T04:12:37;6.30;;;5.70;;
3297;SDS011;1661;53.572;10.174;2023-05-10T04:15:04;8.93;;;5.50;;
3297;SDS011;1661;53.572;10.174;2023-05-10T04:17:33;5.80;;;5.40;;
3297;SDS011;1661;53.572;10.174;2023-05-10T04:20:00;7.00;;;6.30;;
3297;SDS011;1661;53.572;10.174;2023-05-10T04:22:26;9.83;;;5.80;;
3297;SDS011;1661;53.572;10.174;2023-05-10T04:24:54;10.13;;;6.70;;
3297;SDS011;1661;53.572;10.174;2023-05-10T04:27:21;6.67;;;6.07;;
3297;SDS011;1661;53.572;10.174;2023-05-10T04:29:48;8.47;;;6.30;;
3297;SDS011;1661;53.572;10.174;2023-05-10T04:32:15;6.70;;;5.80;;
3297;SDS011;1661;53.572;10.174;2023-05-10T04:34:46;7.13;;;6.43;;
3297;SDS011;1661;53.572;10.174;2023-05-10T04:37:13;7.70;;;6.53;;
3297;SDS011;1661;53.572;10.174;2023-05-10T04:39:40;7.13;;;6.43;;
3297;SDS011;1661;53.572;10.174;2023-05-10T04:42:07;8.87;;;6.50;;
3297;SDS011;1661;53.572;10.174;2023-05-10T04:44:33;9.03;;;7.03;;
3297;SDS011;1661;53.572;10.174;2023-05-10T04:47:01;7.80;;;6.90;;
3297;SDS011;1661;53.572;10.174;2023-05-10T04:49:28;8.10;;;5.83;;
3297;SDS011;1661;53.572;10.174;2023-05-10T04:51:56;7.10;;;6.40;;
3297;SDS011;1661;53.572;10.174;2023-05-10T04:54:23;7.97;;;6.73;;
3297;SDS011;1661;53.572;10.174;2023-05-10T04:56:50;8.17;;;7.27;;
3297;SDS011;1661;53.572;10.174;2023-05-10T04:59:17;10.77;;;7.33;;
3297;SDS011;1661;53.572;10.174;2023-05-10T05:01:44;11.97;;;6.63;;
3297;SDS011;1661;53.572;10.174;2023-05-10T05:04:10;8.77;;;6.17;;
3297;SDS011;1661;53.572;10.174;2023-05-10T05:06:37;6.33;;;5.90;;
3297;SDS011;1661;53.572;10.174;2023-05-10T05:09:05;6.53;;;5.93;;
3297;SDS011;1661;53.572;10.174;2023-05-10T05:11:32;12.10;;;6.90;;
3297;SDS011;1661;53.572;10.174;2023-05-10T05:13:59;7.57;;;6.40;;
3297;SDS011;1661;53.572;10.174;2023-05-10T05:16:26;12.30;;;5.63;;
3297;SDS011;1661;53.572;10.174;2023-05-10T05:18:56;11.93;;;7.10;;
3297;SDS011;1661;53.572;10.174;2023-05-10T05:21:25;7.43;;;6.50;;
3297;SDS011;1661;53.572;10.174;2023-05-10T05:23:53;8.40;;;6.80;;
3297;SDS011;1661;53.572;10.174;2023-05-10T05:26:22;7.20;;;6.53;;
3297;SDS011;1661;53.572;10.174;2023-05-10T05:28:52;8.60;;;6.93;;
3297;SDS011;1661;53.572;10.174;2023-05-10T05:31:19;9.00;;;7.00;;
3297;SDS011;1661;53.572;10.174;2023-05-10T05:33:46;6.70;;;6.00;;
3297;SDS011;1661;53.572;10.174;2023-05-10T05:36:13;10.23;;;7.37;;
3297;SDS011;1661;53.572;10.174;2023-05-10T05:38:40;6.13;;;5.63;;
3297;SDS011;1661;53.572;10.174;2023-05-10T05:41:08;8.23;;;7.43;;
3297;SDS011;1661;53.572;10.174;2023-05-10T05:43:36;8.00;;;6.70;;
3297;SDS011;1661;53.572;10.174;2023-05-10T05:46:03;9.60;;;7.30;;
3297;SDS011;1661;53.572;10.174;2023-05-10T05:48:29;7.67;;;6.13;;
3297;SDS011;1661;53.572;10.174;2023-05-10T05:50:56;8.77;;;6.40;;
3297;SDS011;1661;53.572;10.174;2023-05-10T05:53:26;10.67;;;7.20;;
3297;SDS011;1661;53.572;10.174;2023-05-10T05:55:53;7.33;;;6.30;;
3297;SDS011;1661;53.572;10.174;2023-05-10T05:58:21;8.07;;;7.43;;
3297;SDS011;1661;53.572;10.174;2023-05-10T06:00:49;7.70;;;7.00;;
3297;SDS011;1661;53.572;10.174;2023-05-10T06:03:16;8.80;;;6.70;;
3297;SDS011;1661;53.572;10.174;2023-05-10T06:05:45;6.77;;;6.07;;
3297;SDS011;1661;53.572;10.174;2023-05-10T06:08:13;8.60;;;6.40;;
3297;SDS011;1661;53.572;10.174;2023-05-10T06:10:40;11.00;;;7.50;;
3297;SDS011;1661;53.572;10.174;2023-05-10T06:13:14;16.30;;;7.40;;
3297;SDS011;1661;53.572;10.174;2023-05-10T06:15:41;8.87;;;6.67;;
3297;SDS011;1661;53.572;10.174;2023-05-10T06:18:11;8.47;;;6.43;;
3297;SDS011;1661;53.572;10.174;2023-05-10T06:20:38;6.60;;;6.03;;
3297;SDS011;1661;53.572;10.174;2023-05-10T06:23:07;7.80;;;6.80;;
3297;SDS011;1661;53.572;10.174;2023-05-10T06:25:33;6.83;;;6.20;;
3297;SDS011;1661;53.572;10.174;2023-05-10T06:28:00;7.70;;;6.90;;
3297;SDS011;1661;53.572;10.174;2023-05-10T06:30:27;9.13;;;6.93;;
3297;SDS011;1661;53.572;10.174;2023-05-10T06:32:56;5.90;;;5.33;;
3297;SDS011;1661;53.572;10.174;2023-05-10T06:35:24;7.70;;;6.90;;
3297;SDS011;1661;53.572;10.174;2023-05-10T06:37:51;7.63;;;7.03;;
3297;SDS011;1661;53.572;10.174;2023-05-10T06:40:18;8.70;;;6.70;;
3297;SDS011;1661;53.572;10.174;2023-05-10T06:42:45;7.77;;;6.97;;
3297;SDS011;1661;53.572;10.174;2023-05-10T06:45:15;7.30;;;6.33;;
3297;SDS011;1661;53.572;10.174;2023-05-10T06:47:42;8.73;;;6.87;;
3297;SDS011;1661;53.572;10.174;2023-05-10T06:50:09;8.33;;;6.80;;
3297;SDS011;1661;53.572;10.174;2023-05-10T06:52:38;7.87;;;7.17;;
3297;SDS011;1661;53.572;10.174;2023-05-10T06:55:05;7.10;;;6.40;;
3297;SDS011;1661;53.572;10.174;2023-05-10T06:57:33;8.43;;;6.07;;
3297;SDS011;1661;53.572;10.174;2023-05-10T07:00:00;6.80;;;6.20;;
3297;SDS011;1661;53.572;10.174;2023-05-10T07:02:29;8.43;;;6.70;;
3297;SDS011;1661;53.572;10.174;2023-05-10T07:04:55;14.83;;;8.57;;
3297;SDS011;1661;53.572;10.174;2023-05-10T07:07:22;7.90;;;7.20;;
3297;SDS011;1661;53.572;10.174;2023-05-10T07:09:51;8.73;;;6.80;;
3297;SDS011;1661;53.572;10.174;2023-05-10T07:12:17;6.03;;;5.37;;
3297;SDS011;1661;53.572;10.174;2023-05-10T07:14:44;6.30;;;5.70;;
3297;SDS011;1661;53.572;10.174;2023-05-10T07:17:11;6.33;;;5.80;;
3297;SDS011;1661;53.572;10.174;2023-05-10T07:19:38;6.37;;;5.67;;
3297;SDS011;1661;53.572;10.174;2023-05-10T07:22:08;14.43;;;7.00;;
3297;SDS011;1661;53.572;10.174;2023-05-10T07:24:35;6.43;;;5.73;;
3297;SDS011;1661;53.572;10.174;2023-05-10T07:27:03;8.53;;;6.43;;
3297;SDS011;1661;53.572;10.174;2023-05-10T07:29:32;5.47;;;5.03;;
3297;SDS011;1661;53.572;10.174;2023-05-10T07:31:59;9.73;;;6.63;;
3297;SDS011;1661;53.572;10.174;2023-05-10T07:34:26;7.10;;;6.43;;
3297;SDS011;1661;53.572;10.174;2023-05-10T07:36:53;12.00;;;6.47;;
3297;SDS011;1661;53.572;10.174;2023-05-10T07:39:20;9.50;;;6.97;;
3297;SDS011;1661;53.572;10.174;2023-05-10T07:41:47;15.03;;;6.03;;
3297;SDS011;1661;53.572;10.174;2023-05-10T07:44:15;13.57;;;5.90;;
3297;SDS011;1661;53.572;10.174;2023-05-10T07:46:43;6.63;;;6.03;;
3297;SDS011;1661;53.572;10.174;2023-05-10T07:49:10;7.93;;;5.97;;
3297;SDS011;1661;53.572;10.174;2023-05-10T07:51:37;9.97;;;5.90;;
3297;SDS011;1661;53.572;10.174;2023-05-10T07:54:04;6.50;;;5.90;;
3297;SDS011;1661;53.572;10.174;2023-05-10T07:56:33;9.27;;;6.60;;
3297;SDS011;1661;53.572;10.174;2023-05-10T07:59:01;6.17;;;5.67;;
3297;SDS011;1661;53.572;10.174;2023-05-10T08:01:34;8.17;;;6.07;;
3297;SDS011;1661;53.572;10.174;2023-05-10T08:04:01;8.63;;;5.70;;
3297;SDS011;1661;53.572;10.174;2023-05-10T08:06:27;6.63;;;6.00;;
3297;SDS011;1661;53.572;10.174;2023-05-10T08:08:55;6.33;;;5.83;;
3297;SDS011;1661;53.572;10.174;2023-05-10T08:11:22;7.77;;;6.83;;
3297;SDS011;1661;53.572;10.174;2023-05-10T08:13:49;7.33;;;6.70;;
3297;SDS011;1661;53.572;10.174;2023-05-10T08:16:17;9.13;;;6.47;;
3297;SDS011;1661;53.572;10.174;2023-05-10T08:18:46;7.40;;;5.73;;
3297;SDS011;1661;53.572;10.174;2023-05-10T08:21:16;11.20;;;8.50;;
3297;SDS011;1661;53.572;10.174;2023-05-10T08:23:42;8.93;;;6.27;;
3297;SDS011;1661;53.572;10.174;2023-05-10T08:26:09;6.73;;;6.13;;
3297;SDS011;1661;53.572;10.174;2023-05-10T08:28:36;8.00;;;6.23;;
3297;SDS011;1661;53.572;10.174;2023-05-10T08:31:06;7.40;;;6.70;;
3297;SDS011;1661;53.572;10.174;2023-05-10T08:33:33;7.50;;;6.80;;
3297;SDS011;1661;53.572;10.174;2023-05-10T08:36:01;8.83;;;5.93;;
3297;SDS011;1661;53.572;10.174;2023-05-10T08:38:28;7.23;;;6.20;;
3297;SDS011;1661;53.572;10.174;2023-05-10T08:40:55;5.53;;;5.00;;
3297;SDS011;1661;53.572;10.174;2023-05-10T08:43:23;7.13;;;6.60;;
3297;SDS011;1661;53.572;10.174;2023-05-10T08:45:55;10.80;;;6.60;;
3297;SDS011;1661;53.572;10.174;2023-05-10T08:48:25;6.60;;;5.97;;
3297;SDS011;1661;53.572;10.174;2023-05-10T08:50:55;7.10;;;6.50;;
3297;SDS011;1661;53.572;10.174;2023-05-10T08:53:26;9.17;;;7.37;;
3297;SDS011;1661;53.572;10.174;2023-05-10T08:55:57;10.23;;;7.23;;
3297;SDS011;1661;53.572;10.174;2023-05-10T08:58:30;8.07;;;7.27;;
3297;SDS011;1661;53.572;10.174;2023-05-10T09:00:57;7.70;;;6.77;;
3297;SDS011;1661;53.572;10.174;2023-05-10T09:03:25;10.00;;;6.77;;
3297;SDS011;1661;53.572;10.174;2023-05-10T09:05:55;6.70;;;6.10;;
3297;SDS011;1661;53.572;10.174;2023-05-10T09:08:22;7.93;;;7.00;;
3297;SDS011;1661;53.572;10.174;2023-05-10T09:10:52;6.73;;;6.10;;
3297;SDS011;1661;53.572;10.174;2023-05-10T09:13:19;8.10;;;7.20;;
3297;SDS011;1661;53.572;10.174;2023-05-10T09:15:47;8.43;;;6.40;;
3297;SDS011;1661;53.572;10.174;2023-05-10T09:18:15;6.23;;;5.83;;
3297;SDS011;1661;53.572;10.174;2023-05-10T09:20:41;7.30;;;6.60;;
3297;SDS011;1661;53.572;10.174;2023-05-10T09:23:08;8.70;;;6.50;;
3297;SDS011;1661;53.572;10.174;2023-05-10T09:25:35;5.43;;;5.03;;
3297;SDS011;1661;53.572;10.174;2023-05-10T09:28:09;9.27;;;7.80;;
3297;SDS011;1661;53.572;10.174;2023-05-10T09:30:39;9.37;;;8.37;;
3297;SDS011;1661;53.572;10.174;2023-05-10T09:33:10;7.10;;;6.13;;
3297;SDS011;1661;53.572;10.174;2023-05-10T09:35:37;6.73;;;6.13;;
3297;SDS011;1661;53.572;10.174;2023-05-10T09:38:05;7.60;;;6.60;;
3297;SDS011;1661;53.572;10.174;2023-05-10T09:40:31;7.73;;;7.07;;
3297;SDS011;1661;53.572;10.174;2023-05-10T09:42:59;7.67;;;7.03;;
3297;SDS011;1661;53.572;10.174;2023-05-10T09:45:29;8.93;;;8.03;;
3297;SDS011;1661;53.572;10.174;2023-05-10T09:47:56;7.83;;;7.10;;
3297;SDS011;1661;53.572;10.174;2023-05-10T09:50:24;7.10;;;6.43;;
3297;SDS011;1661;53.572;10.174;2023-05-10T09:52:52;7.60;;;6.90;;
3297;SDS011;1661;53.572;10.174;2023-05-10T09:55:20;8.63;;;7.80;;
3297;SDS011;1661;53.572;10.174;2023-05-10T09:57:48;8.47;;;7.37;;
3297;SDS011;1661;53.572;10.174;2023-05-10T10:00:17;7.40;;;6.67;;
3297;SDS011;1661;53.572;10.174;2023-05-10T10:02:47;8.50;;;7.77;;
3297;SDS011;1661;53.572;10.174;2023-05-10T10:05:20;10.67;;;8.03;;
3297;SDS011;1661;53.572;10.174;2023-05-10T10:07:46;9.27;;;7.83;;
3297;SDS011;1661;53.572;10.174;2023-05-10T10:10:15;7.50;;;6.80;;
3297;SDS011;1661;53.572;10.174;2023-05-10T10:12:42;8.80;;;7.90;;
3297;SDS011;1661;53.572;10.174;2023-05-10T10:15:10;27.83;;;11.73;;
3297;SDS011;1661;53.572;10.174;2023-05-10T10:17:37;14.17;;;9.20;;
3297;SDS011;1661;53.572;10.174;2023-05-10T10:20:07;9.90;;;8.60;;
3297;SDS011;1661;53.572;10.174;2023-05-10T10:22:34;10.20;;;6.90;;
3297;SDS011;1661;53.572;10.174;2023-05-10T10:25:02;8.47;;;7.67;;
3297;SDS011;1661;53.572;10.174;2023-05-10T10:27:33;10.40;;;7.80;;
3297;SDS011;1661;53.572;10.174;2023-05-10T10:30:11;8.93;;;8.03;;
3297;SDS011;1661;53.572;10.174;2023-05-10T10:32:49;10.07;;;9.10;;
3297;SDS011;1661;53.572;10.174;2023-05-10T10:35:29;13.17;;;10.30;;
3297;SDS011;1661;53.572;10.174;2023-05-10T10:37:57;9.57;;;8.67;;
3297;SDS011;1661;53.572;10.174;2023-05-10T10:40:25;7.97;;;7.40;;
3297;SDS011;1661;53.572;10.174;2023-05-10T10:42:52;13.47;;;10.97;;
3297;SDS011;1661;53.572;10.174;2023-05-10T10:45:20;11.43;;;10.20;;
3297;SDS011;1661;53.572;10.174;2023-05-10T10:47:48;12.33;;;11.13;;
3297;SDS011;1661;53.572;10.174;2023-05-10T10:50:16;12.10;;;9.50;;
3297;SDS011;1661;53.572;10.174;2023-05-10T10:52:47;13.90;;;10.60;;
3297;SDS011;1661;53.572;10.174;2023-05-10T10:55:15;14.80;;;10.60;;
3297;SDS011;1661;53.572;10.174;2023-05-10T10:57:48;9.60;;;8.90;;
3297;SDS011;1661;53.572;10.174;2023-05-10T11:00:23;13.07;;;11.87;;
3297;SDS011;1661;53.572;10.174;2023-05-10T11:02:52;11.83;;;10.53;;
3297;SDS011;1661;53.572;10.174;2023-05-10T11:05:23;21.53;;;11.77;;
3297;SDS011;1661;53.572;10.174;2023-05-10T11:07:55;11.80;;;10.67;;
3297;SDS011;1661;53.572;10.174;2023-05-10T11:10:23;14.47;;;11.83;;
3297;SDS011;1661;53.572;10.174;2023-05-10T11:12:51;13.70;;;12.40;;
3297;SDS011;1661;53.572;10.174;2023-05-10T11:15:19;14.73;;;11.90;;
3297;SDS011;1661;53.572;10.174;2023-05-10T11:17:47;14.10;;;12.57;;
3297;SDS011;1661;53.572;10.174;2023-05-10T11:20:17;12.27;;;11.17;;
3297;SDS011;1661;53.572;10.174;2023-05-10T11:22:51;10.60;;;9.70;;
3297;SDS011;1661;53.572;10.174;2023-05-10T11:25:40;12.37;;;11.27;;
3297;SDS011;1661;53.572;10.174;2023-05-10T11:28:08;13.70;;;12.40;;
3297;SDS011;1661;53.572;10.174;2023-05-10T11:30:35;14.67;;;11.23;;
3297;SDS011;1661;53.572;10.174;2023-05-10T11:33:05;12.37;;;11.17;;
3297;SDS011;1661;53.572;10.174;2023-05-10T11:35:36;14.30;;;12.20;;
3297;SDS011;1661;53.572;10.174;2023-05-10T11:38:06;12.97;;;11.50;;
3297;SDS011;1661;53.572;10.174;2023-05-10T11:40:33;16.10;;;13.20;;
3297;SDS011;1661;53.572;10.174;2023-05-10T11:43:00;12.57;;;11.37;;
3297;SDS011;1661;53.572;10.174;2023-05-10T11:45:31;14.80;;;13.30;;
3297;SDS011;1661;53.572;10.174;2023-05-10T11:47:58;14.03;;;12.57;;
3297;SDS011;1661;53.572;10.174;2023-05-10T11:50:26;13.40;;;12.17;;
3297;SDS011;1661;53.572;10.174;2023-05-10T11:52:54;14.10;;;11.90;;
3297;SDS011;1661;53.572;10.174;2023-05-10T11:55:23;13.40;;;12.10;;
3297;SDS011;1661;53.572;10.174;2023-05-10T11:57:51;13.63;;;11.50;;
3297;SDS011;1661;53.572;10.174;2023-05-10T12:00:27;14.07;;;11.40;;
3297;SDS011;1661;53.572;10.174;2023-05-10T12:02:54;13.30;;;12.10;;
3297;SDS011;1661;53.572;10.174;2023-05-10T12:05:21;15.40;;;13.73;;
3297;SDS011;1661;53.572;10.174;2023-05-10T12:07:48;14.40;;;12.93;;
3297;SDS011;1661;53.572;10.174;2023-05-10T12:10:15;12.23;;;11.03;;
3297;SDS011;1661;53.572;10.174;2023-05-10T12:12:52;16.67;;;13.10;;
3297;SDS011;1661;53.572;10.174;2023-05-10T12:15:19;13.67;;;12.10;;
3297;SDS011;1661;53.572;10.174;2023-05-10T12:17:47;13.57;;;12.13;;
3297;SDS011;1661;53.572;10.174;2023-05-10T12:20:18;14.80;;;13.17;;
3297;SDS011;1661;53.572;10.174;2023-05-10T12:22:47;13.90;;;12.50;;
3297;SDS011;1661;53.572;10.174;2023-05-10T12:25:16;15.30;;;13.43;;
3297;SDS011;1661;53.572;10.174;2023-05-10T12:27:54;13.50;;;12.20;;
3297;SDS011;1661;53.572;10.174;2023-05-10T12:30:22;20.03;;;13.47;;
3297;SDS011;1661;53.572;10.174;2023-05-10T12:32:50;15.40;;;13.90;;
3297;SDS011;1661;53.572;10.174;2023-05-10T12:35:19;16.33;;;14.60;;
3297;SDS011;1661;53.572;10.174;2023-05-10T12:37:49;17.20;;;14.40;;
3297;SDS011;1661;53.572;10.174;2023-05-10T12:40:20;15.03;;;13.63;;
3297;SDS011;1661;53.572;10.174;2023-05-10T12:42:46;17.10;;;12.97;;
3297;SDS011;1661;53.572;10.174;2023-05-10T12:45:15;14.70;;;13.20;;
3297;SDS011;1661;53.572;10.174;2023-05-10T12:47:43;19.43;;;13.83;;
3297;SDS011;1661;53.572;10.174;2023-05-10T12:50:10;10.87;;;9.87;;
3297;SDS011;1661;53.572;10.174;2023-05-10T12:52:37;11.53;;;10.40;;
3297;SDS011;1661;53.572;10.174;2023-05-10T12:55:05;11.13;;;10.13;;
3297;SDS011;1661;53.572;10.174;2023-05-10T12:57:32;13.83;;;12.23;;
3297;SDS011;1661;53.572;10.174;2023-05-10T12:59:58;11.10;;;10.10;;
3297;SDS011;1661;53.572;10.174;2023-05-10T13:02:30;13.00;;;11.73;;
3297;SDS011;1661;53.572;10.174;2023-05-10T13:04:56;10.90;;;10.00;;
3297;SDS011;1661;53.572;10.174;2023-05-10T13:07:23;11.23;;;10.10;;
3297;SDS011;1661;53.572;10.174;2023-05-10T13:09:50;10.67;;;9.77;;
3297;SDS011;1661;53.572;10.174;2023-05-10T13:12:19;9.10;;;8.23;;
3297;SDS011;1661;53.572;10.174;2023-05-10T13:14:46;11.00;;;10.00;;
3297;SDS011;1661;53.572;10.174;2023-05-10T13:17:13;12.97;;;11.77;;
3297;SDS011;1661;53.572;10.174;2023-05-10T13:19:41;12.00;;;10.97;;
3297;SDS011;1661;53.572;10.174;2023-05-10T13:22:11;11.87;;;10.90;;
3297;SDS011;1661;53.572;10.174;2023-05-10T13:24:38;11.70;;;10.60;;
3297;SDS011;1661;53.572;10.174;2023-05-10T13:27:04;12.27;;;10.90;;
3297;SDS011;1661;53.572;10.174;2023-05-10T13:29:31;11.73;;;10.73;;
3297;SDS011;1661;53.572;10.174;2023-05-10T13:31:58;10.37;;;9.57;;
3297;SDS011;1661;53.572;10.174;2023-05-10T13:34:25;11.87;;;10.87;;
3297;SDS011;1661;53.572;10.174;2023-05-10T13:36:53;13.50;;;12.10;;
3297;SDS011;1661;53.572;10.174;2023-05-10T13:39:21;13.43;;;12.27;;
3297;SDS011;1661;53.572;10.174;2023-05-10T13:41:47;11.93;;;10.83;;
3297;SDS011;1661;53.572;10.174;2023-05-10T13:44:14;12.53;;;11.30;;
3297;SDS011;1661;53.572;10.174;2023-05-10T13:46:44;11.43;;;10.50;;
3297;SDS011;1661;53.572;10.174;2023-05-10T13:49:11;13.27;;;12.07;;
3297;SDS011;1661;53.572;10.174;2023-05-10T13:51:40;16.60;;;9.60;;
3297;SDS011;1661;53.572;10.174;2023-05-10T13:54:09;9.93;;;8.37;;
3297;SDS011;1661;53.572;10.174;2023-05-10T13:56:36;9.73;;;8.93;;
3297;SDS011;1661;53.572;10.174;2023-05-10T13:59:08;11.43;;;9.10;;
3297;SDS011;1661;53.572;10.174;2023-05-10T14:01:35;9.87;;;8.90;;
3297;SDS011;1661;53.572;10.174;2023-05-10T14:04:06;8.13;;;7.43;;
3297;SDS011;1661;53.572;10.174;2023-05-10T14:06:35;9.83;;;8.87;;
3297;SDS011;1661;53.572;10.174;2023-05-10T14:09:02;9.20;;;8.40;;
3297;SDS011;1661;53.572;10.174;2023-05-10T14:11:30;7.50;;;7.00;;
3297;SDS011;1661;53.572;10.174;2023-05-10T14:13:59;11.77;;;7.93;;
3297;SDS011;1661;53.572;10.174;2023-05-10T14:16:26;7.90;;;7.30;;
3297;SDS011;1661;53.572;10.174;2023-05-10T14:18:56;11.50;;;7.23;;
3297;SDS011;1661;53.572;10.174;2023-05-10T14:21:22;8.10;;;7.50;;
3297;SDS011;1661;53.572;10.174;2023-05-10T14:23:49;8.93;;;8.13;;
3297;SDS011;1661;53.572;10.174;2023-05-10T14:26:16;8.70;;;8.03;;
3297;SDS011;1661;53.572;10.174;2023-05-10T14:28:47;8.00;;;7.27;;
3297;SDS011;1661;53.572;10.174;2023-05-10T14:31:14;8.20;;;7.60;;
3297;SDS011;1661;53.572;10.174;2023-05-10T14:33:44;9.23;;;8.37;;
3297;SDS011;1661;53.572;10.174;2023-05-10T14:36:11;6.20;;;5.70;;
3297;SDS011;1661;53.572;10.174;2023-05-10T14:38:41;8.30;;;7.60;;
3297;SDS011;1661;53.572;10.174;2023-05-10T14:41:10;8.93;;;8.13;;
3297;SDS011;1661;53.572;10.174;2023-05-10T14:43:39;10.57;;;9.47;;
3297;SDS011;1661;53.572;10.174;2023-05-10T14:46:10;9.33;;;8.40;;
3297;SDS011;1661;53.572;10.174;2023-05-10T14:48:36;10.07;;;9.13;;
3297;SDS011;1661;53.572;10.174;2023-05-10T14:51:03;10.83;;;9.03;;
3297;SDS011;1661;53.572;10.174;2023-05-10T14:53:30;9.43;;;8.63;;
3297;SDS011;1661;53.572;10.174;2023-05-10T14:55:57;9.27;;;8.43;;
3297;SDS011;1661;53.572;10.174;2023-05-10T14:58:26;10.37;;;9.40;;
3297;SDS011;1661;53.572;10.174;2023-05-10T15:00:53;9.70;;;8.80;;
3297;SDS011;1661;53.572;10.174;2023-05-10T15:03:23;9.23;;;8.43;;
3297;SDS011;1661;53.572;10.174;2023-05-10T15:05:50;10.73;;;9.20;;